Time;durP1;ratioP1;P1;durP2;ratioP2;P2;SDS_P1;SDS_P2;PMS_P1;PMS_P2;Temp;Humidity;BMP_temperature;BMP_pressure;BME280_temperature;BME280_humidity;BME280_pressure;Samples;Min_cycle;Max_cycle;Signal;HPM_P1;HPM_P2
2021/11/07 00:02:15;;;;;;;31.90;22.08;;;8.80;99.90;;;;;;5044179;28;20395;-83
2021/11/07 00:04:46;;;;;;;24.52;17.50;;;8.70;99.90;;;;;;5041567;28;20394;-84
2021/11/07 00:07:18;;;;;;;14.88;12.75;;;8.60;99.90;;;;;;5040373;28;20407;-84
2021/11/07 00:12:31;;;;;;;15.05;12.70;;;8.50;99.90;;;;;;5055577;28;20554;-83
2021/11/07 00:14:58;;;;;;;14.00;12.52;;;8.50;99.90;;;;;;5032359;28;20849;-84
2021/11/07 00:17:27;;;;;;;13.48;12.07;;;8.50;99.90;;;;;;5033115;28;20391;-83
2021/11/07 00:25:18;;;;;;;13.88;11.57;;;8.60;99.90;;;;;;5053169;28;20494;-83
2021/11/07 00:27:50;;;;;;;14.40;12.65;;;8.70;99.90;;;;;;5049475;28;20467;-83
2021/11/07 00:30:29;;;;;;;13.95;12.40;;;8.70;99.90;;;;;;5033001;28;20400;-84
2021/11/07 00:33:11;;;;;;;14.13;12.68;;;8.70;99.90;;;;;;5034970;28;20451;-84
2021/11/07 00:38:06;;;;;;;14.50;12.57;;;8.50;99.90;;;;;;5051509;28;20396;-83
2021/11/07 00:43:04;;;;;;;13.80;11.88;;;8.40;99.90;;;;;;5046486;28;20453;-84
2021/11/07 00:45:38;;;;;;;13.32;11.93;;;8.40;99.90;;;;;;5046892;28;20399;-83
2021/11/07 00:50:59;;;;;;;13.10;11.27;;;8.30;99.90;;;;;;5057991;28;20401;-82
2021/11/07 00:56:01;;;;;;;13.85;12.20;;;8.30;99.90;;;;;;5067457;28;20531;-83
2021/11/07 00:58:40;;;;;;;13.93;11.98;;;8.20;99.90;;;;;;5037100;28;20771;-83
2021/11/07 01:01:12;;;;;;;14.10;11.68;;;8.10;99.90;;;;;;5039393;28;20395;-83
2021/11/07 01:03:40;;;;;;;13.02;11.13;;;8.20;99.90;;;;;;5046298;28;20459;-83
2021/11/07 01:06:07;;;;;;;14.65;11.50;;;8.10;99.90;;;;;;5048089;28;20436;-83
2021/11/07 01:08:33;;;;;;;13.70;11.83;;;8.20;99.90;;;;;;5033664;28;20825;-84
2021/11/07 01:11:00;;;;;;;15.47;12.00;;;8.30;99.90;;;;;;5045600;28;20434;-83
2021/11/07 01:13:27;;;;;;;13.20;11.32;;;8.20;99.90;;;;;;5027577;28;20388;-82
2021/11/07 01:15:53;;;;;;;16.10;11.52;;;8.20;99.90;;;;;;5048621;28;20458;-82
2021/11/07 01:18:19;;;;;;;13.15;11.75;;;8.20;99.90;;;;;;5061595;28;20376;-83
2021/11/07 01:20:45;;;;;;;14.18;12.13;;;8.20;99.90;;;;;;5035106;28;20379;-83
2021/11/07 01:23:33;;;;;;;16.63;12.20;;;8.10;99.90;;;;;;5037180;28;20505;-82
2021/11/07 01:26:23;;;;;;;13.57;11.73;;;8.10;99.90;;;;;;5065755;28;20403;-82
2021/11/07 01:28:53;;;;;;;13.07;11.77;;;8.20;99.90;;;;;;5032647;28;20771;-83
2021/11/07 01:31:19;;;;;;;13.98;12.50;;;8.20;99.90;;;;;;5055804;28;20429;-83
2021/11/07 01:33:45;;;;;;;13.70;12.13;;;8.30;99.90;;;;;;5046567;28;20388;-84
2021/11/07 01:39:02;;;;;;;13.10;11.50;;;8.30;99.90;;;;;;5057981;28;20392;-83
2021/11/07 01:41:39;;;;;;;12.70;11.30;;;8.30;99.90;;;;;;5035897;28;20902;-83
2021/11/07 01:44:05;;;;;;;14.25;12.75;;;8.40;99.90;;;;;;5048397;28;20383;-83
2021/11/07 01:46:32;;;;;;;13.13;11.47;;;8.40;99.90;;;;;;5054096;28;20409;-84
2021/11/07 01:51:26;;;;;;;12.65;11.30;;;8.50;99.90;;;;;;5051890;28;20397;-83
2021/11/07 01:53:58;;;;;;;12.27;11.07;;;8.60;99.90;;;;;;5049157;28;20387;-83
2021/11/07 01:56:30;;;;;;;12.88;11.35;;;8.50;99.90;;;;;;5061960;28;20407;-83
2021/11/07 01:58:55;;;;;;;13.87;11.20;;;8.50;99.90;;;;;;5043071;28;20390;-83
2021/11/07 02:01:23;;;;;;;12.43;11.03;;;8.50;99.90;;;;;;5055280;28;20372;-84
2021/11/07 02:03:50;;;;;;;14.27;11.73;;;8.50;99.90;;;;;;5044486;28;20739;-83
2021/11/07 02:06:16;;;;;;;13.63;11.50;;;8.50;99.90;;;;;;5045366;28;20420;-83
2021/11/07 02:08:42;;;;;;;12.88;11.50;;;8.50;99.90;;;;;;5049980;28;20394;-83
2021/11/07 02:11:07;;;;;;;11.85;10.65;;;8.50;99.90;;;;;;5032377;28;20447;-83
2021/11/07 02:13:33;;;;;;;13.10;10.55;;;8.60;99.90;;;;;;5043186;28;20911;-83
2021/11/07 02:15:59;;;;;;;12.43;11.13;;;8.60;99.90;;;;;;5065951;28;20403;-83
2021/11/07 02:18:25;;;;;;;12.77;11.37;;;8.50;99.90;;;;;;5038460;28;20442;-83
2021/11/07 02:20:51;;;;;;;13.27;11.43;;;8.50;99.90;;;;;;5041557;28;20806;-83
2021/11/07 02:23:20;;;;;;;13.23;11.35;;;8.50;99.90;;;;;;5045443;28;20382;-83
2021/11/07 02:25:47;;;;;;;15.55;11.68;;;8.60;99.90;;;;;;5047709;28;20392;-84
2021/11/07 02:28:24;;;;;;;12.68;11.40;;;8.60;99.90;;;;;;5032927;28;20955;-84
2021/11/07 02:30:49;;;;;;;14.05;11.65;;;8.50;99.90;;;;;;5041116;28;20395;-82
2021/11/07 02:33:15;;;;;;;13.50;12.07;;;8.50;99.90;;;;;;5044712;28;20386;-83
2021/11/07 02:35:41;;;;;;;12.37;11.13;;;8.50;99.90;;;;;;5048525;28;20429;-82
2021/11/07 02:38:06;;;;;;;14.25;12.52;;;8.60;99.90;;;;;;5031747;28;20411;-83
2021/11/07 02:40:32;;;;;;;12.90;11.60;;;8.50;99.90;;;;;;5060480;28;20491;-82
2021/11/07 02:42:58;;;;;;;15.67;12.80;;;8.60;99.90;;;;;;5066003;28;20389;-83
2021/11/07 02:45:23;;;;;;;15.33;12.27;;;8.60;99.90;;;;;;5066959;28;20370;-82
2021/11/07 02:47:50;;;;;;;13.35;10.85;;;8.60;99.90;;;;;;5047729;28;20954;-83
2021/11/07 02:50:18;;;;;;;11.93;10.73;;;8.60;99.90;;;;;;5030784;28;20877;-82
2021/11/07 02:52:45;;;;;;;13.02;11.27;;;8.60;99.90;;;;;;5032647;28;20394;-84
2021/11/07 02:55:11;;;;;;;13.63;10.88;;;8.70;99.90;;;;;;5031284;28;20758;-83
2021/11/07 02:57:38;;;;;;;12.40;11.07;;;8.60;99.90;;;;;;5030568;28;20874;-84
2021/11/07 03:00:09;;;;;;;11.98;10.77;;;8.60;99.90;;;;;;5032004;28;20396;-83
2021/11/07 03:02:34;;;;;;;11.68;10.50;;;8.70;99.90;;;;;;5049446;28;20433;-81
2021/11/07 03:05:00;;;;;;;11.43;10.33;;;8.70;99.90;;;;;;5050054;28;20395;-82
2021/11/07 03:07:26;;;;;;;16.30;10.90;;;8.80;99.90;;;;;;5049888;28;20404;-83
2021/11/07 03:09:53;;;;;;;14.63;11.07;;;8.80;99.90;;;;;;5031302;28;20375;-83
2021/11/07 03:12:19;;;;;;;13.38;11.43;;;8.80;99.90;;;;;;5031736;28;20395;-83
2021/11/07 03:14:51;;;;;;;12.48;10.43;;;8.90;99.90;;;;;;5031761;28;20417;-84
2021/11/07 03:17:19;;;;;;;10.85;9.55;;;8.80;99.90;;;;;;5049380;28;20407;-84
2021/11/07 03:19:46;;;;;;;14.85;10.60;;;8.90;99.90;;;;;;5034426;28;20402;-83
2021/11/07 03:22:18;;;;;;;11.10;9.85;;;8.90;99.90;;;;;;5035099;28;20383;-85
2021/11/07 03:24:46;;;;;;;11.70;10.32;;;8.90;99.90;;;;;;5034914;28;20475;-82
2021/11/07 03:27:18;;;;;;;11.18;10.00;;;9.00;99.90;;;;;;5052290;28;20920;-84
2021/11/07 03:29:52;;;;;;;12.05;9.82;;;9.10;99.90;;;;;;5052451;28;20601;-84
2021/11/07 03:32:22;;;;;;;12.27;9.98;;;9.00;99.90;;;;;;5052831;28;20446;-83
2021/11/07 03:34:52;;;;;;;9.77;8.77;;;8.90;99.90;;;;;;5035038;28;20395;-83
2021/11/07 03:37:22;;;;;;;11.68;8.98;;;9.10;99.90;;;;;;5035795;28;20766;-84
2021/11/07 03:39:50;;;;;;;12.13;8.90;;;9.10;99.90;;;;;;5034555;28;20785;-82
2021/11/07 03:42:16;;;;;;;10.23;9.13;;;9.10;99.90;;;;;;5035594;28;20396;-84
2021/11/07 03:44:42;;;;;;;11.88;9.07;;;9.10;99.90;;;;;;5053153;28;20386;-83
2021/11/07 03:47:09;;;;;;;9.55;8.55;;;9.10;99.90;;;;;;5054281;28;20407;-82
2021/11/07 03:49:36;;;;;;;10.32;8.77;;;9.20;99.90;;;;;;5034100;28;20388;-83
2021/11/07 03:52:02;;;;;;;9.98;8.07;;;9.10;99.90;;;;;;5053292;28;20474;-84
2021/11/07 03:54:30;;;;;;;10.25;8.70;;;9.20;99.90;;;;;;5027015;28;20478;-83
2021/11/07 03:56:57;;;;;;;9.82;8.82;;;9.20;99.90;;;;;;5034845;28;20407;-83
2021/11/07 03:59:24;;;;;;;10.07;8.95;;;9.20;99.90;;;;;;5052497;28;20776;-82
2021/11/07 04:01:50;;;;;;;9.77;8.48;;;9.30;99.90;;;;;;5036661;28;20390;-83
2021/11/07 04:04:16;;;;;;;9.25;8.32;;;9.30;99.90;;;;;;5053408;28;20398;-83
2021/11/07 04:06:42;;;;;;;9.68;8.68;;;9.30;99.90;;;;;;5053408;28;20483;-83
2021/11/07 04:09:11;;;;;;;9.82;8.77;;;9.40;99.90;;;;;;5033932;28;20549;-83
2021/11/07 04:11:38;;;;;;;9.30;7.90;;;9.40;99.90;;;;;;5034387;28;20385;-84
2021/11/07 04:14:08;;;;;;;8.95;8.07;;;9.50;99.90;;;;;;5052854;28;20401;-83
2021/11/07 04:16:35;;;;;;;9.70;8.07;;;9.50;99.90;;;;;;5051716;28;20419;-83
2021/11/07 04:19:02;;;;;;;11.15;8.93;;;9.40;99.90;;;;;;5053364;28;20438;-83
2021/11/07 04:21:27;;;;;;;9.90;8.90;;;9.40;99.90;;;;;;5052179;28;20465;-84
2021/11/07 04:23:53;;;;;;;9.93;8.80;;;9.40;99.90;;;;;;5034267;28;20882;-83
2021/11/07 04:26:20;;;;;;;10.70;9.37;;;9.30;99.90;;;;;;5033811;28;20450;-83
2021/11/07 04:28:46;;;;;;;10.95;9.25;;;9.40;99.90;;;;;;5051819;28;20822;-84
2021/11/07 04:31:12;;;;;;;12.38;9.45;;;9.50;99.90;;;;;;5050136;28;20467;-82
2021/11/07 04:33:37;;;;;;;11.53;10.07;;;9.30;99.90;;;;;;5032838;28;20392;-83
2021/11/07 04:36:03;;;;;;;9.63;8.50;;;9.30;99.90;;;;;;5033721;28;20476;-84
2021/11/07 04:38:29;;;;;;;10.27;9.20;;;9.20;99.90;;;;;;5050350;28;20383;-83
2021/11/07 04:40:56;;;;;;;9.65;8.30;;;9.30;99.90;;;;;;5051370;28;20738;-83
2021/11/07 04:43:22;;;;;;;9.40;8.48;;;9.40;99.90;;;;;;5032843;28;20449;-83
2021/11/07 04:45:48;;;;;;;9.00;7.88;;;9.40;99.90;;;;;;5053796;28;20372;-82
2021/11/07 04:48:13;;;;;;;10.10;7.80;;;9.50;99.90;;;;;;5071908;28;20415;-84
2021/11/07 04:50:40;;;;;;;10.43;7.53;;;9.50;99.90;;;;;;5071507;28;20402;-83
2021/11/07 04:53:11;;;;;;;8.23;7.43;;;9.60;99.90;;;;;;5034041;28;20752;-85
2021/11/07 04:55:39;;;;;;;9.85;7.97;;;9.70;99.90;;;;;;5052400;28;20459;-85
2021/11/07 04:58:05;;;;;;;9.57;7.88;;;9.60;99.90;;;;;;5033807;28;20477;-83
2021/11/07 05:00:32;;;;;;;10.68;8.40;;;9.60;99.90;;;;;;5033267;28;20390;-84
2021/11/07 05:03:03;;;;;;;9.13;7.78;;;9.70;99.90;;;;;;5032558;28;20403;-84
2021/11/07 05:05:30;;;;;;;10.05;7.30;;;9.70;99.90;;;;;;5034222;28;20399;-82
2021/11/07 05:07:57;;;;;;;9.03;7.43;;;9.60;99.90;;;;;;5052822;28;20430;-82
2021/11/07 05:10:25;;;;;;;9.50;7.20;;;9.70;99.90;;;;;;5051190;28;20391;-81
2021/11/07 05:12:51;;;;;;;9.10;7.63;;;9.70;99.90;;;;;;5051882;28;20457;-82
2021/11/07 05:15:17;;;;;;;9.27;7.03;;;9.70;99.90;;;;;;5033600;28;20380;-83
2021/11/07 05:17:43;;;;;;;8.30;6.90;;;9.80;99.90;;;;;;5034165;28;20437;-83
2021/11/07 05:20:10;;;;;;;8.37;7.07;;;9.70;99.90;;;;;;5052434;28;20881;-83
2021/11/07 05:22:36;;;;;;;8.13;7.32;;;9.70;99.90;;;;;;5052261;28;20376;-83
2021/11/07 05:25:06;;;;;;;7.90;7.07;;;9.80;99.90;;;;;;5033367;28;20387;-83
2021/11/07 05:27:33;;;;;;;8.10;7.30;;;9.80;99.90;;;;;;5050549;28;20404;-83
2021/11/07 05:29:59;;;;;;;9.13;7.50;;;9.80;99.90;;;;;;5032498;28;20901;-83
2021/11/07 05:32:25;;;;;;;8.65;7.30;;;9.80;99.90;;;;;;5051092;28;20364;-83
2021/11/07 05:34:50;;;;;;;9.15;7.85;;;9.80;99.90;;;;;;5034029;28;20762;-84
2021/11/07 05:37:16;;;;;;;8.98;7.72;;;9.70;99.90;;;;;;5050793;28;20730;-82
2021/11/07 05:39:42;;;;;;;8.83;7.90;;;9.70;99.90;;;;;;5051455;28;20384;-83
2021/11/07 05:42:10;;;;;;;8.83;7.87;;;9.60;99.90;;;;;;5033410;28;20743;-83
2021/11/07 05:44:36;;;;;;;9.75;8.48;;;9.60;99.90;;;;;;5050879;28;20387;-83
2021/11/07 05:47:02;;;;;;;8.82;7.88;;;9.60;99.90;;;;;;5052142;28;20403;-83
2021/11/07 05:49:29;;;;;;;8.93;7.60;;;9.60;99.90;;;;;;5043899;28;20719;-82
2021/11/07 05:51:54;;;;;;;9.25;7.40;;;9.60;99.90;;;;;;5051632;28;20396;-81
2021/11/07 05:54:21;;;;;;;8.65;7.75;;;9.60;99.90;;;;;;5034041;28;20423;-82
2021/11/07 05:56:47;;;;;;;8.88;7.60;;;9.70;99.90;;;;;;5050564;28;20375;-81
2021/11/07 05:59:13;;;;;;;9.60;7.47;;;9.60;99.90;;;;;;5050340;28;20469;-82
2021/11/07 06:01:39;;;;;;;9.13;7.07;;;9.60;99.90;;;;;;5051653;28;20376;-80
2021/11/07 06:04:06;;;;;;;7.90;6.73;;;9.70;99.90;;;;;;5031639;28;20935;-81
2021/11/07 06:06:33;;;;;;;8.75;7.20;;;9.80;99.90;;;;;;5050247;28;20408;-83
2021/11/07 06:08:58;;;;;;;8.32;7.22;;;9.80;99.90;;;;;;5051177;28;20410;-83
2021/11/07 06:11:24;;;;;;;9.13;7.80;;;9.80;99.90;;;;;;5032488;28;20888;-84
2021/11/07 06:13:50;;;;;;;9.67;7.80;;;9.80;99.90;;;;;;5052355;28;20453;-83
2021/11/07 06:16:15;;;;;;;9.73;7.47;;;9.70;99.90;;;;;;5033847;28;20407;-84
2021/11/07 06:18:41;;;;;;;9.77;7.45;;;9.70;99.90;;;;;;5050987;28;21157;-84
2021/11/07 06:21:09;;;;;;;10.10;7.30;;;9.70;99.90;;;;;;5049312;28;20734;-82
2021/11/07 06:23:36;;;;;;;8.93;7.45;;;9.70;99.90;;;;;;5033113;28;20387;-84
2021/11/07 06:26:02;;;;;;;8.23;7.25;;;9.70;99.90;;;;;;5032246;28;20383;-84
2021/11/07 06:28:28;;;;;;;9.73;7.50;;;9.70;99.90;;;;;;5043097;28;20396;-84
2021/11/07 06:30:55;;;;;;;9.98;8.77;;;9.70;99.90;;;;;;5050951;28;20407;-84
2021/11/07 06:33:20;;;;;;;8.37;7.47;;;9.70;99.90;;;;;;5033884;28;20391;-83
2021/11/07 06:35:46;;;;;;;10.67;8.27;;;9.60;99.90;;;;;;5052236;28;20411;-83
2021/11/07 06:38:12;;;;;;;10.50;8.50;;;9.70;99.90;;;;;;5052369;28;20382;-84
2021/11/07 06:40:39;;;;;;;8.93;7.90;;;9.60;99.90;;;;;;5051721;28;20459;-83
2021/11/07 06:43:07;;;;;;;9.05;7.68;;;9.60;99.90;;;;;;5035266;28;20411;-82
2021/11/07 06:45:34;;;;;;;8.23;7.43;;;9.60;99.90;;;;;;5033967;28;20414;-82
2021/11/07 06:48:02;;;;;;;8.43;7.15;;;9.60;99.90;;;;;;5033674;28;20411;-83
2021/11/07 06:50:28;;;;;;;9.57;7.28;;;9.60;99.90;;;;;;5032246;28;20416;-83
2021/11/07 06:52:54;;;;;;;9.47;7.70;;;9.60;99.90;;;;;;5033156;28;20415;-82
2021/11/07 06:55:19;;;;;;;8.50;7.43;;;9.60;99.90;;;;;;5032445;28;20384;-83
2021/11/07 06:57:46;;;;;;;8.88;7.53;;;9.60;99.90;;;;;;5048674;28;20387;-82
2021/11/07 07:00:16;;;;;;;8.90;7.25;;;9.70;99.90;;;;;;5048724;28;20403;-83
2021/11/07 07:02:42;;;;;;;10.48;7.20;;;9.70;99.90;;;;;;5049715;28;20386;-83
2021/11/07 07:05:09;;;;;;;7.72;6.93;;;9.70;99.90;;;;;;5034138;28;20400;-83
2021/11/07 07:07:37;;;;;;;7.90;7.10;;;9.80;99.90;;;;;;5032504;28;20419;-83
2021/11/07 07:10:08;;;;;;;8.98;7.13;;;9.70;99.90;;;;;;5031828;28;20388;-83
2021/11/07 07:15:29;;;;;;;8.27;7.38;;;9.60;99.90;;;;;;5049860;28;20538;-83
2021/11/07 07:23:35;;;;;;;12.40;7.60;;;9.60;99.90;;;;;;5051448;28;20399;-84
2021/11/07 07:29:32;;;;;;;10.53;7.90;;;9.70;99.90;;;;;;5048702;28;20560;-85
2021/11/07 07:31:47;;;;;;;8.95;7.88;;;9.70;99.90;;;;;;5040488;28;20395;-84
2021/11/07 07:34:18;;;;;;;8.90;6.90;;;9.70;99.90;;;;;;5049245;28;20411;-83
2021/11/07 07:36:45;;;;;;;8.55;7.50;;;9.60;99.90;;;;;;5032249;28;20404;-83
2021/11/07 07:39:11;;;;;;;8.53;6.90;;;9.60;99.90;;;;;;5051332;28;20375;-82
2021/11/07 07:41:37;;;;;;;7.53;6.63;;;9.70;99.90;;;;;;5049074;28;20380;-82
2021/11/07 07:44:07;;;;;;;8.20;7.10;;;9.70;99.90;;;;;;5051714;28;20420;-83
2021/11/07 07:46:35;;;;;;;8.70;6.47;;;9.60;99.90;;;;;;5049317;28;20414;-83
2021/11/07 07:49:00;;;;;;;8.07;6.70;;;9.60;99.90;;;;;;5032764;28;20418;-82
2021/11/07 07:51:29;;;;;;;9.60;7.03;;;9.70;99.90;;;;;;5031161;28;20474;-82
2021/11/07 07:53:56;;;;;;;6.35;5.45;;;9.60;99.90;;;;;;5048517;28;20386;-82
2021/11/07 07:56:21;;;;;;;7.43;6.63;;;9.60;99.90;;;;;;5031736;28;20372;-82
2021/11/07 07:58:47;;;;;;;8.65;6.47;;;9.60;99.90;;;;;;5047760;28;20449;-83
2021/11/07 08:01:13;;;;;;;6.97;6.00;;;9.70;99.90;;;;;;5029828;28;20403;-82
2021/11/07 08:03:38;;;;;;;6.88;5.78;;;9.70;99.90;;;;;;5048248;28;20485;-82
2021/11/07 08:06:04;;;;;;;6.50;5.90;;;9.80;99.90;;;;;;5051365;28;21796;-83
2021/11/07 08:08:31;;;;;;;6.80;5.65;;;9.70;99.90;;;;;;5052280;28;20889;-81
2021/11/07 08:10:57;;;;;;;7.30;5.33;;;9.80;99.90;;;;;;5053086;28;20364;-82
2021/11/07 08:13:22;;;;;;;5.73;5.03;;;9.80;99.90;;;;;;5053678;28;20461;-82
2021/11/07 08:15:48;;;;;;;6.27;5.30;;;9.90;99.90;;;;;;5035372;28;20435;-82
2021/11/07 08:18:13;;;;;;;6.53;5.22;;;9.90;99.90;;;;;;5035582;28;20384;-82
2021/11/07 08:20:44;;;;;;;6.70;4.73;;;10.10;99.90;;;;;;5035382;28;21048;-81
2021/11/07 08:23:10;;;;;;;7.15;5.10;;;10.10;99.90;;;;;;5052723;28;20379;-81
2021/11/07 08:25:35;;;;;;;5.03;4.45;;;10.30;99.90;;;;;;5035200;28;20396;-82
2021/11/07 08:28:03;;;;;;;11.07;8.17;;;10.40;99.90;;;;;;5035059;28;20404;-83
2021/11/07 08:30:31;;;;;;;5.28;4.22;;;10.40;99.90;;;;;;5033353;28;20959;-81
2021/11/07 08:32:59;;;;;;;5.30;4.13;;;10.50;99.90;;;;;;5035383;28;20969;-82
2021/11/07 08:35:25;;;;;;;5.53;4.07;;;10.50;99.90;;;;;;5036007;28;20383;-82
2021/11/07 08:37:56;;;;;;;5.10;4.07;;;10.60;99.90;;;;;;5034155;28;20932;-83
2021/11/07 08:40:40;;;;;;;5.45;4.03;;;10.50;99.90;;;;;;5052434;28;20825;-82
2021/11/07 09:04:53;;;;;;;3.83;3.40;;;11.00;99.90;;;;;;5052106;28;20395;-83
2021/11/07 09:07:26;;;;;;;4.77;3.50;;;11.10;99.90;;;;;;5036349;28;20481;-84
2021/11/07 09:09:59;;;;;;;4.47;3.17;;;11.20;99.90;;;;;;5051761;28;20479;-82
2021/11/07 09:12:26;;;;;;;3.60;3.00;;;11.20;99.90;;;;;;5053419;28;20417;-84
2021/11/07 09:14:53;;;;;;;4.38;2.85;;;11.20;99.90;;;;;;5033852;28;20478;-84
2021/11/07 09:17:21;;;;;;;4.65;2.58;;;11.30;99.90;;;;;;5051770;28;20387;-82
2021/11/07 09:19:50;;;;;;;2.65;2.08;;;11.50;99.90;;;;;;5033287;28;20387;-83
2021/11/07 09:22:29;;;;;;;3.38;2.40;;;11.70;99.90;;;;;;5063830;28;20531;-83
2021/11/07 09:24:59;;;;;;;3.13;2.55;;;11.70;99.90;;;;;;5051834;28;20390;-82
2021/11/07 09:27:38;;;;;;;4.18;2.60;;;11.80;99.90;;;;;;5052371;28;20816;-83
2021/11/07 09:30:23;;;;;;;4.88;2.92;;;11.70;99.90;;;;;;5050843;28;20858;-82
2021/11/07 09:38:14;;;;;;;4.38;2.80;;;11.30;99.90;;;;;;5052477;28;20831;-83
2021/11/07 09:41:08;;;;;;;4.93;2.75;;;11.20;99.90;;;;;;5052251;28;20396;-82
2021/11/07 09:43:43;;;;;;;4.82;2.55;;;11.30;99.90;;;;;;5050219;28;20430;-82
2021/11/07 09:46:34;;;;;;;4.45;2.40;;;11.70;99.90;;;;;;5032562;28;20533;-84
2021/11/07 09:49:12;;;;;;;4.38;2.50;;;11.80;99.90;;;;;;5033371;28;20754;-83
2021/11/07 09:51:39;;;;;;;4.55;2.58;;;11.70;99.90;;;;;;5032986;28;20380;-84
2021/11/07 09:54:05;;;;;;;5.07;2.97;;;11.80;99.90;;;;;;5050919;28;20476;-84
2021/11/07 09:56:32;;;;;;;4.53;2.57;;;11.80;99.90;;;;;;5038457;28;20387;-82
2021/11/07 09:58:59;;;;;;;6.40;2.90;;;11.80;99.90;;;;;;5043168;28;20394;-82
2021/11/07 10:01:27;;;;;;;6.55;3.40;;;11.70;99.90;;;;;;5026655;28;20887;-83
2021/11/07 10:03:53;;;;;;;6.60;3.28;;;11.60;99.90;;;;;;5038517;28;20388;-83
2021/11/07 10:06:37;;;;;;;7.03;2.80;;;11.40;99.90;;;;;;5049105;28;20400;-83
2021/11/07 10:09:05;;;;;;;9.93;3.20;;;11.40;99.90;;;;;;5040498;28;20395;-83
2021/11/07 10:11:33;;;;;;;12.82;3.08;;;11.50;99.90;;;;;;5059294;28;20386;-83
2021/11/07 10:14:05;;;;;;;9.20;3.13;;;11.40;99.90;;;;;;5049169;28;20394;-83
2021/11/07 10:16:39;;;;;;;6.18;2.85;;;11.50;99.90;;;;;;5038508;28;20399;-81
2021/11/07 10:19:34;;;;;;;6.80;3.05;;;11.50;99.90;;;;;;5022113;28;20424;-83
2021/11/07 10:22:01;;;;;;;8.10;2.80;;;11.30;99.90;;;;;;5034786;28;20468;-83
2021/11/07 10:24:36;;;;;;;8.95;3.42;;;11.30;99.90;;;;;;5029827;28;20443;-82
2021/11/07 10:27:07;;;;;;;6.97;2.85;;;11.30;99.90;;;;;;5025490;28;20828;-83
2021/11/07 10:29:46;;;;;;;8.25;3.25;;;11.30;99.90;;;;;;5043156;28;20376;-83
2021/11/07 10:32:35;;;;;;;7.07;3.30;;;11.30;99.90;;;;;;5031171;28;20482;-83
2021/11/07 10:36:00;;;;;;;6.70;3.00;;;11.30;99.90;;;;;;5048488;28;20395;-82
2021/11/07 10:44:23;;;;;;;8.15;3.10;;;11.10;99.90;;;;;;5051250;28;21045;-83
2021/11/07 10:52:49;;;;;;;9.93;3.42;;;10.60;99.90;;;;;;5037944;28;20418;-83
2021/11/07 10:55:22;;;;;;;8.52;3.30;;;10.50;99.90;;;;;;5029522;28;20376;-85
2021/11/07 10:57:57;;;;;;;10.52;3.08;;;10.40;99.90;;;;;;5029633;28;20392;-84
2021/11/07 11:00:37;;;;;;;10.75;2.95;;;10.30;99.90;;;;;;5029521;28;23319;-83
2021/11/07 11:03:05;;;;;;;10.50;3.40;;;10.20;99.90;;;;;;5040785;28;20620;-84
2021/11/07 11:05:35;;;;;;;10.25;3.30;;;10.00;99.90;;;;;;5028018;28;20461;-84
2021/11/07 11:08:16;;;;;;;8.98;2.85;;;10.00;99.90;;;;;;5026836;28;20403;-84
2021/11/07 11:13:27;;;;;;;13.05;3.55;;;10.10;99.90;;;;;;5045082;28;20422;-84
2021/11/07 11:27:35;;;;;;;7.32;2.33;;;9.80;99.90;;;;;;5045456;28;20423;-84
2021/11/07 11:35:31;;;;;;;7.25;2.80;;;10.10;99.90;;;;;;5049278;28;20389;-85
2021/11/07 11:43:12;;;;;;;7.63;3.00;;;10.10;99.90;;;;;;5039580;28;20395;-84
2021/11/07 11:45:40;;;;;;;10.23;3.50;;;10.20;99.90;;;;;;5038978;28;20391;-84
2021/11/07 11:50:56;;;;;;;9.73;3.33;;;10.30;99.90;;;;;;5048540;28;20507;-84
2021/11/07 11:59:03;;;;;;;6.07;2.92;;;10.60;99.90;;;;;;5050385;28;20395;-83
2021/11/07 12:01:34;;;;;;;8.02;3.10;;;10.80;99.90;;;;;;5048319;28;21042;-83
2021/11/07 12:06:46;;;;;;;9.07;3.90;;;10.70;99.90;;;;;;5055364;28;20879;-83
2021/11/07 12:15:03;;;;;;;11.70;5.00;;;11.10;99.90;;;;;;5071403;28;20414;-84
2021/11/07 12:17:35;;;;;;;11.25;4.25;;;11.00;99.90;;;;;;5052891;28;20394;-82
2021/11/07 12:20:20;;;;;;;8.38;3.45;;;11.00;99.90;;;;;;5042118;28;20967;-82
2021/11/07 12:22:46;;;;;;;7.40;2.90;;;11.10;99.90;;;;;;5033350;28;20462;-83
2021/11/07 12:25:13;;;;;;;6.00;2.70;;;11.10;99.90;;;;;;5033751;28;20853;-83
2021/11/07 12:27:49;;;;;;;7.88;3.00;;;11.20;99.90;;;;;;5050867;28;20498;-81
2021/11/07 12:30:31;;;;;;;9.82;3.22;;;11.30;99.90;;;;;;5034461;28;20881;-84
2021/11/07 12:33:07;;;;;;;10.82;3.20;;;11.20;99.90;;;;;;5046665;28;20408;-83
2021/11/07 12:41:29;;;;;;;7.93;3.30;;;11.20;99.90;;;;;;5050515;28;20406;-84
2021/11/07 12:44:02;;;;;;;9.68;3.20;;;11.10;99.90;;;;;;5033534;28;20375;-84
2021/11/07 12:46:53;;;;;;;6.88;2.90;;;11.10;99.90;;;;;;5031461;28;20890;-84
2021/11/07 12:49:28;;;;;;;15.20;7.88;;;11.10;99.90;;;;;;5052298;28;20506;-83
2021/11/07 12:52:06;;;;;;;13.63;6.87;;;11.10;99.90;;;;;;5045751;28;20544;-84
2021/11/07 12:54:34;;;;;;;17.25;7.93;;;11.10;99.90;;;;;;5031966;28;20388;-83
2021/11/07 12:57:05;;;;;;;9.45;4.43;;;11.00;99.90;;;;;;5065063;28;20385;-82
2021/11/07 12:59:48;;;;;;;11.52;4.22;;;11.00;99.90;;;;;;5066321;28;21199;-83
2021/11/07 13:02:29;;;;;;;11.68;3.90;;;11.10;99.90;;;;;;5028115;28;20388;-84
2021/11/07 13:05:19;;;;;;;14.60;5.47;;;11.30;99.90;;;;;;5030215;28;20413;-85
2021/11/07 13:13:30;;;;;;;13.73;3.80;;;11.60;99.90;;;;;;5050205;28;20391;-83
2021/11/07 13:24:13;;;;;;;12.97;4.20;;;11.40;99.90;;;;;;5049235;28;20388;-83
2021/11/07 13:32:29;;;;;;;11.95;4.80;;;10.90;99.90;;;;;;5040890;28;20476;-83
2021/11/07 13:34:56;;;;;;;10.00;3.47;;;10.80;99.90;;;;;;5033898;28;20452;-83
2021/11/07 13:37:25;;;;;;;8.27;3.00;;;10.80;99.90;;;;;;5045725;28;20411;-82
2021/11/07 13:39:51;;;;;;;10.52;3.20;;;10.80;99.90;;;;;;5042932;28;20388;-84
2021/11/07 13:42:17;;;;;;;9.98;3.10;;;10.90;99.90;;;;;;5032333;28;20395;-83
2021/11/07 13:45:00;;;;;;;9.52;3.08;;;10.80;99.90;;;;;;5028898;28;20389;-83
2021/11/07 13:47:31;;;;;;;10.07;3.47;;;10.80;99.90;;;;;;5020178;28;20419;-83
2021/11/07 13:49:59;;;;;;;8.85;3.30;;;10.60;99.90;;;;;;5034612;28;20392;-82
2021/11/07 13:52:30;;;;;;;8.73;3.15;;;10.40;99.90;;;;;;5030586;28;20384;-83
2021/11/07 13:54:56;;;;;;;10.32;3.47;;;10.30;99.90;;;;;;5042016;28;20374;-82
2021/11/07 13:57:30;;;;;;;11.90;3.13;;;10.30;99.90;;;;;;5033829;28;20386;-83
2021/11/07 13:59:57;;;;;;;10.57;2.83;;;10.30;99.90;;;;;;5026460;28;20439;-82
2021/11/07 14:02:25;;;;;;;13.18;3.58;;;10.20;99.90;;;;;;5032622;28;20386;-81
2021/11/07 14:04:54;;;;;;;10.85;3.40;;;10.20;99.90;;;;;;5013391;28;20903;-83
2021/11/07 14:07:29;;;;;;;10.55;3.50;;;10.30;99.90;;;;;;5027653;28;20780;-83
2021/11/07 14:10:13;;;;;;;15.93;3.87;;;10.40;99.90;;;;;;5035562;28;20933;-82
2021/11/07 14:12:43;;;;;;;17.52;6.72;;;10.40;99.90;;;;;;5008824;28;20404;-82
2021/11/07 14:15:10;;;;;;;15.30;4.60;;;10.40;99.90;;;;;;5039833;28;20383;-82
2021/11/07 14:17:37;;;;;;;12.98;4.43;;;10.40;99.90;;;;;;5040220;28;20384;-83
2021/11/07 14:20:07;;;;;;;12.38;4.20;;;10.50;99.90;;;;;;5044601;28;20490;-82
2021/11/07 14:22:36;;;;;;;17.02;7.95;;;10.60;99.90;;;;;;5027963;28;20485;-82
2021/11/07 14:25:08;;;;;;;16.20;6.80;;;10.70;99.90;;;;;;5012599;28;20395;-83
2021/11/07 14:27:46;;;;;;;13.20;4.65;;;10.70;99.90;;;;;;5025355;28;20413;-82
2021/11/07 14:30:19;;;;;;;14.23;4.32;;;10.80;99.90;;;;;;5028612;28;20393;-82
2021/11/07 14:32:54;;;;;;;16.83;4.10;;;10.80;99.90;;;;;;5029892;28;21278;-83
2021/11/07 14:35:26;;;;;;;16.35;4.43;;;10.90;99.90;;;;;;5025508;28;20743;-83
2021/11/07 14:37:58;;;;;;;9.90;3.75;;;10.70;99.90;;;;;;5030580;28;20388;-83
2021/11/07 14:40:33;;;;;;;13.23;3.85;;;10.60;99.90;;;;;;5041105;28;20379;-83
2021/11/07 14:46:09;;;;;;;12.53;3.70;;;10.30;99.90;;;;;;5048300;28;20376;-82
2021/11/07 15:04:48;;;;;;;16.27;4.40;;;9.30;99.90;;;;;;5050720;28;20399;-83
2021/11/07 15:07:35;;;;;;;12.93;3.88;;;9.20;99.90;;;;;;5037033;28;20423;-84
2021/11/07 15:10:21;;;;;;;11.88;4.05;;;9.10;99.90;;;;;;5046358;28;20489;-81
2021/11/07 15:13:00;;;;;;;12.27;4.07;;;9.00;99.90;;;;;;5047462;28;20379;-81
2021/11/07 15:15:41;;;;;;;14.68;3.80;;;8.90;99.90;;;;;;5070577;28;20378;-83
2021/11/07 15:18:18;;;;;;;12.43;4.07;;;8.90;99.90;;;;;;5038080;28;20397;-81
2021/11/07 15:20:56;;;;;;;13.75;4.30;;;9.00;99.90;;;;;;5030408;28;20402;-80
2021/11/07 15:23:32;;;;;;;12.73;3.70;;;8.90;99.90;;;;;;5032375;28;20420;-84
2021/11/07 15:25:59;;;;;;;11.00;3.85;;;8.90;99.90;;;;;;5015878;28;20403;-81
2021/11/07 15:28:27;;;;;;;12.68;3.70;;;9.00;99.90;;;;;;5037882;28;20466;-81
2021/11/07 15:30:53;;;;;;;10.17;3.60;;;9.00;99.90;;;;;;5031071;28;20394;-81
2021/11/07 15:33:20;;;;;;;17.80;3.97;;;9.00;99.90;;;;;;5055428;28;20374;-82
2021/11/07 15:35:53;;;;;;;11.63;3.60;;;9.00;99.90;;;;;;5031964;28;20436;-81
2021/11/07 15:38:25;;;;;;;13.85;4.18;;;9.00;99.90;;;;;;5059384;28;20933;-83
2021/11/07 15:40:55;;;;;;;13.37;4.00;;;8.90;99.90;;;;;;5033720;28;20412;-81